createdAt,value
2023-05-15T00:00:44.196Z,12.14
2023-05-15T00:03:12.634Z,12.11
2023-05-15T00:05:41.735Z,12.07
2023-05-15T00:08:09.417Z,12.03
2023-05-15T00:10:38.296Z,11.94
2023-05-15T00:13:07.472Z,11.83
2023-05-15T00:15:35.176Z,11.82
2023-05-15T00:18:03.315Z,11.83
2023-05-15T00:20:31.237Z,11.76
2023-05-15T00:23:00.543Z,11.74
2023-05-15T00:25:28.245Z,11.69
2023-05-15T00:27:56.234Z,11.69
2023-05-15T00:30:24.044Z,11.66
2023-05-15T00:32:52.118Z,11.59
2023-05-15T00:35:19.765Z,11.57
2023-05-15T00:37:47.778Z,11.59
2023-05-15T00:40:22.153Z,11.54
2023-05-15T00:42:51.501Z,11.51
2023-05-15T00:45:20.536Z,11.46
2023-05-15T00:47:50.029Z,11.43
2023-05-15T00:50:18.229Z,11.40
2023-05-15T00:52:46.704Z,11.42
2023-05-15T00:55:16.135Z,11.48
2023-05-15T00:57:45.199Z,11.47
2023-05-15T01:00:17.265Z,11.47
2023-05-15T01:02:45.499Z,11.53
2023-05-15T01:05:13.184Z,11.48
2023-05-15T01:07:50.379Z,11.42
2023-05-15T01:10:22.593Z,11.37
2023-05-15T01:12:52.061Z,11.27
2023-05-15T01:15:20.157Z,11.22
2023-05-15T01:17:47.902Z,11.16
2023-05-15T01:20:20.069Z,11.24
2023-05-15T01:23:00.822Z,11.25
2023-05-15T01:25:58.859Z,11.22
2023-05-15T01:28:33.121Z,11.28
2023-05-15T01:31:10.672Z,11.33
2023-05-15T01:33:43.819Z,11.33
2023-05-15T01:36:15.619Z,11.19
2023-05-15T01:38:48.638Z,11.13
2023-05-15T01:41:21.044Z,11.01
2023-05-15T01:43:57.146Z,10.95
2023-05-15T01:46:30.940Z,10.93
2023-05-15T01:49:02.642Z,10.94
2023-05-15T01:51:32.324Z,11.03
2023-05-15T01:54:01.191Z,11.05
2023-05-15T01:56:30.631Z,11.08
2023-05-15T01:59:01.625Z,11.04
2023-05-15T02:01:31.278Z,10.96
2023-05-15T02:03:59.272Z,10.93
2023-05-15T02:06:27.609Z,10.96
2023-05-15T02:08:58.173Z,10.96
2023-05-15T02:11:26.191Z,10.85
2023-05-15T02:13:55.914Z,10.65
2023-05-15T02:16:25.763Z,10.67
2023-05-15T02:18:53.630Z,10.72
2023-05-15T02:21:21.694Z,10.75
2023-05-15T02:23:49.303Z,10.65
2023-05-15T02:26:31.635Z,10.47
2023-05-15T02:29:11.256Z,10.52
2023-05-15T02:31:49.022Z,10.53
2023-05-15T02:34:25.153Z,10.52
2023-05-15T02:36:54.564Z,10.46
2023-05-15T02:39:24.964Z,10.41
2023-05-15T02:41:54.352Z,10.37
2023-05-15T02:44:23.746Z,10.37
2023-05-15T02:46:56.055Z,10.35
2023-05-15T02:49:24.161Z,10.39
2023-05-15T02:51:52.062Z,10.33
2023-05-15T02:54:20.361Z,10.32
2023-05-15T02:56:48.088Z,10.27
2023-05-15T02:59:20.213Z,10.24
2023-05-15T03:01:48.351Z,10.15
2023-05-15T03:04:18.554Z,10.15
2023-05-15T03:06:46.248Z,10.18
2023-05-15T03:09:14.235Z,10.13
2023-05-15T03:11:41.858Z,10.16
2023-05-15T03:14:09.518Z,10.13
2023-05-15T03:16:38.761Z,10.07
2023-05-15T03:19:06.995Z,10.11
2023-05-15T03:21:36.116Z,10.07
2023-05-15T03:24:05.017Z,10.12
2023-05-15T03:26:33.134Z,10.13
2023-05-15T03:29:02.702Z,10.11
2023-05-15T03:31:30.407Z,10.09
2023-05-15T03:33:58.099Z,10.11
2023-05-15T03:36:26.180Z,10.12
2023-05-15T03:38:55.220Z,10.07
2023-05-15T03:41:23.441Z,9.99
2023-05-15T03:43:51.122Z,10.05
2023-05-15T03:46:20.222Z,10.04
2023-05-15T03:48:47.957Z,10.07
2023-05-15T03:51:16.110Z,10.12
2023-05-15T03:53:43.728Z,10.12
2023-05-15T03:56:13.396Z,10.08
2023-05-15T03:58:41.818Z,9.97
2023-05-15T04:01:10.061Z,9.99
2023-05-15T04:03:37.746Z,10.00
2023-05-15T04:06:06.213Z,10.07
2023-05-15T04:08:34.244Z,10.13
2023-05-15T04:11:02.220Z,10.22
2023-05-15T04:13:31.285Z,10.29
2023-05-15T04:16:00.248Z,10.32
2023-05-15T04:18:28.020Z,10.40
2023-05-15T04:20:56.387Z,10.40
2023-05-15T04:23:24.030Z,10.42
2023-05-15T04:25:54.092Z,10.41
2023-05-15T04:28:22.039Z,10.46
2023-05-15T04:30:51.511Z,10.53
2023-05-15T04:33:19.167Z,10.53
2023-05-15T04:35:48.049Z,10.54
2023-05-15T04:38:16.392Z,10.54
2023-05-15T04:40:44.176Z,10.54
2023-05-15T04:43:12.408Z,10.52
2023-05-15T04:45:40.097Z,10.61
2023-05-15T04:48:09.235Z,10.68
2023-05-15T04:50:37.595Z,10.75
2023-05-15T04:53:05.421Z,10.84
2023-05-15T04:55:33.796Z,10.91
2023-05-15T04:58:01.558Z,11.02
2023-05-15T05:00:29.546Z,11.13
2023-05-15T05:02:57.597Z,11.20
2023-05-15T05:05:26.981Z,11.27
2023-05-15T05:07:54.795Z,11.37
2023-05-15T05:10:23.499Z,11.45
2023-05-15T05:12:51.180Z,11.55
2023-05-15T05:15:19.535Z,11.62
2023-05-15T05:17:47.266Z,11.66
2023-05-15T05:20:15.418Z,11.71
2023-05-15T05:22:46.031Z,11.76
2023-05-15T05:25:13.704Z,11.81
2023-05-15T05:27:41.343Z,11.86
2023-05-15T05:30:10.618Z,11.91
2023-05-15T05:32:38.360Z,12.02
2023-05-15T05:35:07.192Z,12.02
2023-05-15T05:37:35.084Z,12.02
2023-05-15T05:40:09.041Z,12.04
2023-05-15T05:42:36.769Z,12.05
2023-05-15T05:45:04.625Z,12.04
2023-05-15T05:47:33.312Z,12.08
2023-05-15T05:50:01.082Z,12.10
2023-05-15T05:52:29.325Z,11.99
2023-05-15T05:54:57.384Z,12.03
2023-05-15T05:57:26.570Z,12.08
2023-05-15T05:59:54.295Z,12.17
2023-05-15T06:02:22.513Z,12.26
2023-05-15T06:04:51.044Z,12.34
2023-05-15T06:07:18.681Z,12.42
2023-05-15T06:09:49.668Z,12.48
2023-05-15T06:12:17.341Z,12.53
2023-05-15T06:14:46.381Z,12.59
2023-05-15T06:17:14.557Z,12.66
2023-05-15T06:19:42.266Z,12.76
2023-05-15T06:22:09.949Z,12.84
2023-05-15T06:24:38.202Z,12.95
2023-05-15T06:27:06.252Z,13.02
2023-05-15T06:29:33.921Z,13.06
2023-05-15T06:32:04.223Z,13.13
2023-05-15T06:34:31.896Z,13.23
2023-05-15T06:36:59.568Z,13.28
2023-05-15T06:39:27.581Z,13.33
2023-05-15T06:41:59.088Z,13.37
2023-05-15T06:44:27.367Z,13.41
2023-05-15T06:46:55.370Z,13.44
2023-05-15T06:49:25.549Z,13.51
2023-05-15T06:51:55.233Z,13.56
2023-05-15T06:54:22.916Z,13.64
2023-05-15T06:56:51.142Z,13.71
2023-05-15T06:59:18.814Z,13.76
2023-05-15T07:01:46.481Z,13.82
2023-05-15T07:04:14.741Z,13.88
2023-05-15T07:06:44.326Z,13.93
2023-05-15T07:09:12.054Z,13.97
2023-05-15T07:11:40.461Z,14.01
2023-05-15T07:14:08.460Z,14.02
2023-05-15T07:16:36.165Z,14.07
2023-05-15T07:19:04.274Z,14.12
2023-05-15T07:21:32.365Z,14.13
2023-05-15T07:24:01.636Z,14.14
2023-05-15T07:26:36.365Z,14.14
2023-05-15T07:29:09.870Z,14.14
2023-05-15T07:31:40.243Z,14.16
2023-05-15T07:34:07.941Z,14.23
2023-05-15T07:36:35.993Z,14.25
2023-05-15T07:39:05.252Z,14.29
2023-05-15T07:41:34.181Z,14.34
2023-05-15T07:44:01.802Z,14.38
2023-05-15T07:46:29.503Z,14.47
2023-05-15T07:48:58.063Z,14.52
2023-05-15T07:51:25.806Z,14.55
2023-05-15T07:53:53.412Z,14.60
2023-05-15T07:56:23.083Z,14.67
2023-05-15T07:58:50.787Z,14.71
2023-05-15T08:01:18.438Z,14.73
2023-05-15T08:03:46.680Z,14.76
2023-05-15T08:06:14.348Z,14.77
2023-05-15T08:08:42.903Z,14.77
2023-05-15T08:11:10.517Z,14.79
2023-05-15T08:13:39.544Z,14.81
2023-05-15T08:16:07.972Z,14.80
2023-05-15T08:18:35.760Z,14.79
2023-05-15T08:21:04.760Z,14.80
2023-05-15T08:23:32.898Z,14.79
2023-05-15T08:26:00.550Z,14.80
2023-05-15T08:28:28.275Z,14.82
2023-05-15T08:30:58.656Z,14.81
2023-05-15T08:33:26.317Z,14.80
2023-05-15T08:35:53.982Z,14.78
2023-05-15T08:38:23.110Z,14.76
2023-05-15T08:40:53.823Z,14.77
2023-05-15T08:43:24.081Z,14.77
2023-05-15T08:45:53.592Z,14.79
2023-05-15T08:48:26.933Z,14.83
2023-05-15T08:50:57.686Z,14.85
2023-05-15T08:53:26.231Z,14.85
2023-05-15T08:55:54.482Z,14.92
2023-05-15T08:58:25.941Z,14.93
2023-05-15T09:00:53.683Z,14.94
2023-05-15T09:03:23.961Z,14.99
2023-05-15T09:05:53.125Z,15.00
2023-05-15T09:08:24.182Z,15.01
2023-05-15T09:10:55.053Z,15.03
2023-05-15T09:13:22.798Z,15.04
2023-05-15T09:15:51.003Z,15.05
2023-05-15T09:18:19.317Z,15.07
2023-05-15T09:20:48.369Z,15.08
2023-05-15T09:23:27.410Z,15.08
2023-05-15T09:25:56.854Z,15.10
2023-05-15T09:28:30.559Z,15.13
2023-05-15T09:31:00.426Z,15.11
2023-05-15T09:33:35.242Z,15.09
2023-05-15T09:36:05.771Z,15.07
2023-05-15T09:38:33.808Z,15.08
2023-05-15T09:41:05.998Z,15.05
2023-05-15T09:43:35.858Z,15.06
2023-05-15T09:46:03.811Z,15.05
2023-05-15T09:48:33.267Z,15.03
2023-05-15T09:51:02.189Z,15.03
2023-05-15T09:53:31.754Z,15.04
2023-05-15T09:55:59.998Z,15.05
2023-05-15T09:58:27.680Z,15.07
2023-05-15T10:00:55.651Z,15.08
2023-05-15T10:03:24.469Z,15.09
2023-05-15T10:06:01.619Z,15.14
2023-05-15T10:08:30.259Z,15.15
2023-05-15T10:11:01.597Z,15.19
2023-05-15T10:13:33.068Z,15.23
2023-05-15T10:16:03.553Z,15.28
2023-05-15T10:18:31.504Z,15.30
2023-05-15T10:21:04.626Z,15.33
2023-05-15T10:23:34.153Z,15.39
2023-05-15T10:26:07.026Z,15.42
2023-05-15T10:28:36.226Z,15.46
2023-05-15T10:31:05.593Z,15.49
2023-05-15T10:33:34.158Z,15.53
2023-05-15T10:36:03.306Z,15.54
2023-05-15T10:38:31.899Z,15.60
2023-05-15T10:41:15.760Z,15.63
2023-05-15T10:43:47.272Z,15.68
2023-05-15T10:46:16.284Z,15.70
2023-05-15T10:48:44.463Z,15.69
2023-05-15T10:51:18.201Z,15.73
2023-05-15T10:53:46.627Z,15.77
2023-05-15T10:56:16.506Z,15.82
2023-05-15T10:58:50.298Z,15.86
2023-05-15T11:01:28.675Z,15.93
2023-05-15T11:04:10.627Z,16.02
2023-05-15T11:06:38.998Z,16.08
2023-05-15T11:09:36.145Z,16.13
2023-05-15T11:12:05.313Z,16.20
2023-05-15T11:14:37.251Z,16.24
2023-05-15T11:17:07.194Z,16.28
2023-05-15T11:19:38.279Z,16.30
2023-05-15T11:22:21.976Z,16.34
2023-05-15T11:24:54.912Z,16.41
2023-05-15T11:27:24.501Z,16.51
2023-05-15T11:30:11.728Z,16.65
2023-05-15T11:32:49.133Z,16.74
2023-05-15T11:35:21.944Z,16.86
2023-05-15T11:37:51.157Z,16.96
2023-05-15T11:40:24.801Z,17.05
2023-05-15T11:43:06.477Z,17.16
2023-05-15T11:45:37.177Z,17.28
2023-05-15T11:48:08.626Z,17.37
2023-05-15T11:50:36.673Z,17.62
2023-05-15T11:53:06.659Z,17.91
2023-05-15T11:55:35.779Z,18.22
2023-05-15T11:58:04.334Z,18.52
2023-05-15T12:00:32.612Z,18.76
2023-05-15T12:03:03.748Z,18.96
2023-05-15T12:05:31.942Z,19.26
2023-05-15T12:08:00.120Z,19.33
2023-05-15T12:10:28.024Z,19.37
2023-05-15T12:12:56.130Z,19.51
2023-05-15T12:15:24.242Z,19.62
2023-05-15T12:17:52.059Z,19.77
2023-05-15T12:20:21.394Z,19.89
2023-05-15T12:22:49.454Z,20.03
2023-05-15T12:25:17.650Z,20.09
2023-05-15T12:27:45.801Z,20.09
2023-05-15T12:30:16.733Z,20.11
2023-05-15T12:32:44.987Z,20.15
2023-05-15T12:35:13.212Z,20.23
2023-05-15T12:37:42.708Z,20.25
2023-05-15T12:40:12.273Z,20.27
2023-05-15T12:42:41.380Z,20.32
2023-05-15T12:45:20.012Z,20.34
2023-05-15T12:47:49.665Z,20.28
2023-05-15T12:50:19.845Z,20.16
2023-05-15T12:52:52.955Z,20.03
2023-05-15T12:55:26.216Z,19.83
2023-05-15T12:57:54.437Z,19.68
2023-05-15T13:00:22.824Z,19.58
2023-05-15T13:02:52.448Z,19.46
2023-05-15T13:05:20.670Z,19.38
2023-05-15T13:07:49.819Z,19.25
2023-05-15T13:10:18.611Z,19.21
2023-05-15T13:12:47.706Z,19.14
2023-05-15T13:15:35.676Z,19.10
2023-05-15T13:18:05.031Z,19.09
2023-05-15T13:20:36.531Z,19.04
2023-05-15T13:23:06.005Z,18.97
2023-05-15T13:25:33.966Z,18.94
2023-05-15T13:28:03.867Z,18.86
2023-05-15T13:30:33.054Z,18.86
2023-05-15T13:33:01.452Z,18.68
2023-05-15T13:35:29.605Z,18.34
2023-05-15T13:37:57.757Z,18.07
2023-05-15T13:40:27.290Z,17.75
2023-05-15T13:42:55.431Z,17.51
2023-05-15T13:45:23.066Z,17.32
2023-05-15T13:47:52.119Z,17.20
2023-05-15T13:50:19.803Z,17.03
2023-05-15T13:52:48.473Z,16.94
2023-05-15T13:55:16.217Z,16.88
2023-05-15T13:57:45.416Z,16.68
2023-05-15T14:00:14.295Z,16.54
2023-05-15T14:02:42.987Z,16.50
2023-05-15T14:05:14.479Z,16.33
2023-05-15T14:07:42.840Z,16.24
2023-05-15T14:10:11.621Z,16.11
2023-05-15T14:12:40.196Z,16.05
2023-05-15T14:15:11.887Z,15.89
2023-05-15T14:17:39.621Z,15.91
2023-05-15T14:20:09.348Z,15.82
2023-05-15T14:22:37.111Z,15.63
2023-05-15T14:25:05.383Z,15.47
2023-05-15T14:27:33.412Z,15.33
2023-05-15T14:30:01.551Z,15.26
2023-05-15T14:32:30.903Z,15.22
2023-05-15T14:35:00.016Z,15.13
2023-05-15T14:37:28.632Z,15.08
2023-05-15T14:39:56.312Z,15.07
2023-05-15T14:42:24.368Z,15.00
2023-05-15T14:44:51.985Z,14.94
2023-05-15T14:47:20.071Z,14.97
2023-05-15T14:49:49.104Z,14.97
2023-05-15T14:52:17.890Z,14.99
2023-05-15T14:54:51.199Z,15.04
2023-05-15T14:57:25.272Z,14.96
2023-05-15T14:59:52.970Z,14.90
2023-05-15T15:02:20.641Z,15.00
2023-05-15T15:04:50.119Z,14.88
2023-05-15T15:07:17.714Z,14.90
2023-05-15T15:09:45.771Z,14.89
2023-05-15T15:12:13.423Z,14.87
2023-05-15T15:14:41.094Z,14.86
2023-05-15T15:17:09.094Z,14.87
2023-05-15T15:19:36.780Z,14.88
2023-05-15T15:22:06.720Z,14.85
2023-05-15T15:24:34.345Z,14.84
2023-05-15T15:27:01.926Z,14.83
2023-05-15T15:29:29.999Z,14.79
2023-05-15T15:31:57.739Z,14.84
2023-05-15T15:34:26.094Z,14.86
2023-05-15T15:36:53.723Z,14.87
2023-05-15T15:39:22.764Z,14.83
2023-05-15T15:41:50.916Z,14.78
2023-05-15T15:44:18.569Z,14.80
2023-05-15T15:46:46.575Z,14.86
2023-05-15T15:49:14.235Z,14.86
2023-05-15T15:51:43.026Z,14.80
2023-05-15T15:54:10.719Z,14.82
2023-05-15T15:56:40.240Z,14.83
2023-05-15T15:59:08.283Z,14.83
2023-05-15T16:01:35.999Z,14.78
2023-05-15T16:04:03.720Z,14.75
2023-05-15T16:06:32.353Z,14.78
2023-05-15T16:09:00.205Z,14.78
2023-05-15T16:11:29.796Z,14.76
2023-05-15T16:13:59.327Z,14.80
2023-05-15T16:16:27.471Z,14.78
2023-05-15T16:18:55.199Z,14.78
2023-05-15T16:21:23.122Z,14.74
2023-05-15T16:23:51.194Z,14.74
2023-05-15T16:26:19.376Z,14.73
2023-05-15T16:28:47.050Z,14.75
2023-05-15T16:31:17.943Z,14.77
2023-05-15T16:33:45.895Z,14.80
2023-05-15T16:36:14.040Z,14.81
2023-05-15T16:38:42.143Z,14.84
2023-05-15T16:41:09.808Z,14.90
2023-05-15T16:43:38.662Z,14.92
2023-05-15T16:46:07.112Z,14.96
2023-05-15T16:48:36.128Z,15.13
2023-05-15T16:51:03.759Z,15.14
2023-05-15T16:53:31.838Z,15.22
2023-05-15T16:56:00.073Z,15.17
2023-05-15T16:58:27.733Z,15.09
2023-05-15T17:00:55.768Z,15.09
2023-05-15T17:03:23.583Z,15.04
2023-05-15T17:05:52.958Z,15.06
2023-05-15T17:08:20.612Z,15.07
2023-05-15T17:10:49.419Z,15.03
2023-05-15T17:13:17.071Z,15.03
2023-05-15T17:15:47.495Z,15.04
2023-05-15T17:18:15.550Z,15.04
2023-05-15T17:20:43.264Z,15.03
2023-05-15T17:23:12.805Z,15.08
2023-05-15T17:25:40.429Z,15.05
2023-05-15T17:28:08.035Z,15.01
2023-05-15T17:30:36.121Z,15.00
2023-05-15T17:33:03.960Z,14.99
2023-05-15T17:35:33.228Z,14.99
2023-05-15T17:38:01.625Z,14.94
2023-05-15T17:40:30.700Z,14.92
2023-05-15T17:42:58.297Z,14.90
2023-05-15T17:45:27.259Z,14.91
2023-05-15T17:48:02.047Z,14.95
2023-05-15T17:50:30.095Z,14.98
2023-05-15T17:52:57.765Z,14.98
2023-05-15T17:55:26.529Z,14.97
2023-05-15T17:57:55.607Z,14.99
2023-05-15T18:00:24.250Z,15.04
2023-05-15T18:02:52.030Z,15.05
2023-05-15T18:05:19.793Z,15.07
2023-05-15T18:07:48.466Z,15.02
2023-05-15T18:10:16.060Z,14.96
2023-05-15T18:12:44.694Z,14.91
2023-05-15T18:15:13.791Z,14.85
2023-05-15T18:17:41.470Z,14.80
2023-05-15T18:20:10.622Z,14.78
2023-05-15T18:22:38.264Z,14.77
2023-05-15T18:25:06.736Z,14.73
2023-05-15T18:27:35.059Z,14.66
2023-05-15T18:30:02.983Z,14.62
2023-05-15T18:32:32.022Z,14.60
2023-05-15T18:35:01.009Z,14.62
2023-05-15T18:37:28.638Z,14.70
2023-05-15T18:39:57.404Z,14.75
2023-05-15T18:42:26.007Z,14.86
2023-05-15T18:44:53.654Z,14.93
2023-05-15T18:47:22.205Z,14.90
2023-05-15T18:49:51.234Z,14.97
2023-05-15T18:52:19.941Z,14.90
2023-05-15T18:54:48.590Z,14.88
2023-05-15T18:57:16.566Z,14.88
2023-05-15T18:59:44.441Z,14.86
2023-05-15T19:02:12.569Z,14.80
2023-05-15T19:04:40.309Z,14.75
2023-05-15T19:07:09.384Z,14.75
2023-05-15T19:09:37.357Z,14.79
2023-05-15T19:12:05.379Z,14.79
2023-05-15T19:14:33.911Z,14.79
2023-05-15T19:17:02.014Z,14.80
2023-05-15T19:19:30.305Z,14.85
2023-05-15T19:21:58.276Z,14.91
2023-05-15T19:24:27.312Z,14.98
2023-05-15T19:26:55.581Z,15.02
2023-05-15T19:29:23.246Z,15.13
2023-05-15T19:31:51.080Z,15.04
2023-05-15T19:34:19.619Z,15.12
2023-05-15T19:36:50.594Z,15.08
2023-05-15T19:39:18.503Z,15.12
2023-05-15T19:41:48.138Z,15.13
2023-05-15T19:44:16.164Z,15.10
2023-05-15T19:46:45.532Z,15.08
2023-05-15T19:49:14.081Z,15.04
2023-05-15T19:51:42.079Z,15.01
2023-05-15T19:54:12.108Z,15.03
2023-05-15T19:56:39.810Z,15.01
2023-05-15T19:59:08.903Z,14.98
2023-05-15T20:01:36.973Z,14.97
2023-05-15T20:04:04.790Z,14.89
2023-05-15T20:06:33.490Z,14.92
2023-05-15T20:09:01.111Z,14.90
2023-05-15T20:11:28.807Z,14.86
2023-05-15T20:13:56.837Z,14.84
2023-05-15T20:16:25.882Z,14.81
2023-05-15T20:18:55.023Z,14.75
2023-05-15T20:21:23.100Z,14.79
2023-05-15T20:23:51.096Z,14.76
2023-05-15T20:26:19.911Z,14.76
2023-05-15T20:28:47.924Z,14.68
2023-05-15T20:31:16.230Z,14.66
2023-05-15T20:33:45.768Z,14.56
2023-05-15T20:36:13.885Z,14.59
2023-05-15T20:38:41.564Z,14.57
2023-05-15T20:41:09.673Z,14.55
2023-05-15T20:43:38.411Z,14.52
2023-05-15T20:46:09.115Z,14.53
2023-05-15T20:48:37.285Z,14.48
2023-05-15T20:51:06.362Z,14.52
2023-05-15T20:53:34.460Z,14.58
2023-05-15T20:56:03.180Z,14.59
2023-05-15T20:58:31.123Z,14.60
2023-05-15T21:01:01.367Z,14.57
2023-05-15T21:03:30.199Z,14.57
2023-05-15T21:05:58.082Z,14.59
2023-05-15T21:08:28.439Z,14.53
2023-05-15T21:10:56.261Z,14.51
2023-05-15T21:13:23.956Z,14.53
2023-05-15T21:15:51.917Z,14.57
2023-05-15T21:18:19.754Z,14.51
2023-05-15T21:20:47.778Z,14.48
2023-05-15T21:23:16.321Z,14.42
2023-05-15T21:25:45.432Z,14.39
2023-05-15T21:28:13.632Z,14.47
2023-05-15T21:30:41.330Z,14.42
2023-05-15T21:33:09.149Z,14.46
2023-05-15T21:35:38.037Z,14.37
2023-05-15T21:38:05.821Z,14.38
2023-05-15T21:40:33.446Z,14.39
2023-05-15T21:43:02.542Z,14.39
2023-05-15T21:45:30.764Z,14.41
2023-05-15T21:47:58.589Z,14.41
2023-05-15T21:50:27.845Z,14.37
2023-05-15T21:52:55.911Z,14.37
2023-05-15T21:55:23.620Z,14.38
2023-05-15T21:57:51.731Z,14.38
2023-05-15T22:00:21.257Z,14.37
2023-05-15T22:02:49.064Z,14.38
2023-05-15T22:05:18.895Z,14.38
2023-05-15T22:07:46.543Z,14.40
2023-05-15T22:10:16.418Z,14.41
2023-05-15T22:12:44.683Z,14.37
2023-05-15T22:15:14.384Z,14.40
2023-05-15T22:17:43.581Z,14.37
2023-05-15T22:20:13.507Z,14.41
2023-05-15T22:22:43.088Z,14.41
2023-05-15T22:25:11.101Z,14.39
2023-05-15T22:27:39.226Z,14.33
2023-05-15T22:30:08.627Z,14.28
2023-05-15T22:32:36.588Z,14.24
2023-05-15T22:35:06.390Z,14.25
2023-05-15T22:37:34.349Z,14.31
2023-05-15T22:40:02.313Z,14.33
2023-05-15T22:42:30.323Z,14.28
2023-05-15T22:44:58.268Z,14.29
2023-05-15T22:47:28.558Z,14.27
2023-05-15T22:49:56.540Z,14.29
2023-05-15T22:52:26.270Z,14.31
2023-05-15T22:54:53.888Z,14.35
2023-05-15T22:57:21.814Z,14.33
2023-05-15T22:59:49.498Z,14.37
2023-05-15T23:02:17.542Z,14.40
2023-05-15T23:04:45.270Z,14.39
2023-05-15T23:07:13.123Z,14.37
2023-05-15T23:09:42.489Z,14.37
2023-05-15T23:12:10.345Z,14.43
2023-05-15T23:14:38.396Z,14.45
2023-05-15T23:17:06.245Z,14.42
2023-05-15T23:19:34.191Z,14.47
2023-05-15T23:22:02.124Z,14.46
2023-05-15T23:24:30.142Z,14.42
2023-05-15T23:26:59.143Z,14.44
2023-05-15T23:29:27.441Z,14.44
2023-05-15T23:31:56.957Z,14.47
2023-05-15T23:34:25.765Z,14.48
2023-05-15T23:36:53.751Z,14.48
2023-05-15T23:39:21.473Z,14.54
2023-05-15T23:41:49.575Z,14.49
2023-05-15T23:44:18.799Z,14.48
2023-05-15T23:46:46.550Z,14.46
2023-05-15T23:49:14.685Z,14.46
2023-05-15T23:51:43.580Z,14.43
2023-05-15T23:54:11.554Z,14.45
2023-05-15T23:56:39.468Z,14.46
2023-05-15T23:59:07.508Z,14.45
